sensor_id;sensor_type;location;lat;lon;timestamp;pressure;altitude;pressure_sealevel;temperature;humidity
16613;BME280;8419;52.358;9.752;2023-04-03T00:01:19;102449.00;;;12.43;30.32
16613;BME280;8419;52.358;9.752;2023-04-03T00:04:05;102450.00;;;12.40;30.37
16613;BME280;8419;52.358;9.752;2023-04-03T00:06:52;102455.00;;;12.36;30.45
16613;BME280;8419;52.358;9.752;2023-04-03T00:09:37;102454.00;;;12.34;30.46
16613;BME280;8419;52.358;9.752;2023-04-03T00:12:23;102465.00;;;12.34;30.46
16613;BME280;8419;52.358;9.752;2023-04-03T00:15:09;102453.00;;;12.27;30.54
16613;BME280;8419;52.358;9.752;2023-04-03T00:17:56;102462.00;;;12.24;30.59
16613;BME280;8419;52.358;9.752;2023-04-03T00:20:41;102451.00;;;12.19;30.67
16613;BME280;8419;52.358;9.752;2023-04-03T00:23:27;102465.00;;;12.15;30.70
16613;BME280;8419;52.358;9.752;2023-04-03T00:26:13;102463.00;;;12.14;30.71
16613;BME280;8419;52.358;9.752;2023-04-03T00:28:58;102469.00;;;12.11;30.77
16613;BME280;8419;52.358;9.752;2023-04-03T00:31:43;102473.00;;;12.12;30.76
16613;BME280;8419;52.358;9.752;2023-04-03T00:34:30;102470.00;;;12.09;30.81
16613;BME280;8419;52.358;9.752;2023-04-03T00:37:15;102466.00;;;12.04;30.94
16613;BME280;8419;52.358;9.752;2023-04-03T00:40:01;102471.00;;;12.00;30.95
16613;BME280;8419;52.358;9.752;2023-04-03T00:42:48;102489.00;;;11.92;31.07
16613;BME280;8419;52.358;9.752;2023-04-03T00:45:38;102481.00;;;11.94;31.05
16613;BME280;8419;52.358;9.752;2023-04-03T00:48:29;102483.00;;;11.92;31.12
16613;BME280;8419;52.358;9.752;2023-04-03T00:51:19;102494.00;;;11.92;31.15
16613;BME280;8419;52.358;9.752;2023-04-03T00:54:07;102479.00;;;11.91;31.15
16613;BME280;8419;52.358;9.752;2023-04-03T00:56:56;102487.00;;;11.88;31.20
16613;BME280;8419;52.358;9.752;2023-04-03T00:59:45;102489.00;;;11.86;31.26
16613;BME280;8419;52.358;9.752;2023-04-03T01:02:31;102492.00;;;11.81;31.27
16613;BME280;8419;52.358;9.752;2023-04-03T01:05:19;102494.00;;;11.78;31.31
16613;BME280;8419;52.358;9.752;2023-04-03T01:08:05;102500.00;;;11.78;31.32
16613;BME280;8419;52.358;9.752;2023-04-03T01:10:51;102494.00;;;11.76;31.34
16613;BME280;8419;52.358;9.752;2023-04-03T01:13:37;102501.00;;;11.74;31.37
16613;BME280;8419;52.358;9.752;2023-04-03T01:16:22;102492.00;;;11.74;31.39
16613;BME280;8419;52.358;9.752;2023-04-03T01:19:11;102487.00;;;11.67;31.46
16613;BME280;8419;52.358;9.752;2023-04-03T01:22:11;102493.00;;;11.64;31.56
16613;BME280;8419;52.358;9.752;2023-04-03T01:25:02;102495.00;;;11.65;31.55
16613;BME280;8419;52.358;9.752;2023-04-03T01:27:48;102497.00;;;11.60;31.53
16613;BME280;8419;52.358;9.752;2023-04-03T01:30:36;102505.00;;;11.58;31.56
16613;BME280;8419;52.358;9.752;2023-04-03T01:33:25;102500.00;;;11.55;31.66
16613;BME280;8419;52.358;9.752;2023-04-03T01:36:14;102501.00;;;11.53;31.64
16613;BME280;8419;52.358;9.752;2023-04-03T01:39:00;102501.00;;;11.50;31.72
16613;BME280;8419;52.358;9.752;2023-04-03T01:41:46;102502.00;;;11.46;31.75
16613;BME280;8419;52.358;9.752;2023-04-03T01:44:31;102500.00;;;11.41;31.81
16613;BME280;8419;52.358;9.752;2023-04-03T01:47:17;102502.00;;;11.36;31.82
16613;BME280;8419;52.358;9.752;2023-04-03T01:50:05;102508.00;;;11.32;31.90
16613;BME280;8419;52.358;9.752;2023-04-03T01:52:51;102512.00;;;11.27;31.98
16613;BME280;8419;52.358;9.752;2023-04-03T01:55:37;102511.00;;;11.23;32.07
16613;BME280;8419;52.358;9.752;2023-04-03T01:58:22;102511.00;;;11.21;32.06
16613;BME280;8419;52.358;9.752;2023-04-03T02:01:07;102508.00;;;11.18;32.12
16613;BME280;8419;52.358;9.752;2023-04-03T02:03:53;102512.00;;;11.16;32.13
16613;BME280;8419;52.358;9.752;2023-04-03T02:06:38;102517.00;;;11.16;32.16
16613;BME280;8419;52.358;9.752;2023-04-03T02:09:24;102517.00;;;11.13;32.18
16613;BME280;8419;52.358;9.752;2023-04-03T02:12:11;102506.00;;;11.10;32.26
16613;BME280;8419;52.358;9.752;2023-04-03T02:14:58;102511.00;;;11.07;32.27
16613;BME280;8419;52.358;9.752;2023-04-03T02:17:44;102515.00;;;11.04;32.31
16613;BME280;8419;52.358;9.752;2023-04-03T02:20:29;102509.00;;;11.00;32.39
16613;BME280;8419;52.358;9.752;2023-04-03T02:23:14;102512.00;;;11.01;32.39
16613;BME280;8419;52.358;9.752;2023-04-03T02:26:05;102512.00;;;11.03;32.43
16613;BME280;8419;52.358;9.752;2023-04-03T02:28:51;102514.00;;;11.00;32.46
16613;BME280;8419;52.358;9.752;2023-04-03T02:31:37;102519.00;;;10.97;32.42
16613;BME280;8419;52.358;9.752;2023-04-03T02:34:22;102522.00;;;10.94;32.47
16613;BME280;8419;52.358;9.752;2023-04-03T02:37:08;102511.00;;;10.91;32.52
16613;BME280;8419;52.358;9.752;2023-04-03T02:39:53;102508.00;;;10.89;32.59
16613;BME280;8419;52.358;9.752;2023-04-03T02:42:39;102515.00;;;10.83;32.67
16613;BME280;8419;52.358;9.752;2023-04-03T02:45:25;102522.00;;;10.85;32.67
16613;BME280;8419;52.358;9.752;2023-04-03T02:48:10;102517.00;;;10.87;32.68
16613;BME280;8419;52.358;9.752;2023-04-03T02:50:57;102526.00;;;10.83;32.72
16613;BME280;8419;52.358;9.752;2023-04-03T02:53:42;102519.00;;;10.80;32.79
16613;BME280;8419;52.358;9.752;2023-04-03T02:56:28;102515.00;;;10.81;32.76
16613;BME280;8419;52.358;9.752;2023-04-03T02:59:14;102516.00;;;10.85;32.70
16613;BME280;8419;52.358;9.752;2023-04-03T03:02:02;102521.00;;;10.77;32.79
16613;BME280;8419;52.358;9.752;2023-04-03T03:04:48;102526.00;;;10.72;32.90
16613;BME280;8419;52.358;9.752;2023-04-03T03:07:34;102527.00;;;10.68;32.92
16613;BME280;8419;52.358;9.752;2023-04-03T03:10:20;102533.00;;;10.65;32.96
16613;BME280;8419;52.358;9.752;2023-04-03T03:13:05;102534.00;;;10.68;32.91
16613;BME280;8419;52.358;9.752;2023-04-03T03:15:50;102531.00;;;10.66;32.91
16613;BME280;8419;52.358;9.752;2023-04-03T03:18:36;102527.00;;;10.60;32.97
16613;BME280;8419;52.358;9.752;2023-04-03T03:21:22;102534.00;;;10.59;32.98
16613;BME280;8419;52.358;9.752;2023-04-03T03:24:08;102533.00;;;10.54;33.04
16613;BME280;8419;52.358;9.752;2023-04-03T03:26:53;102547.00;;;10.53;33.06
16613;BME280;8419;52.358;9.752;2023-04-03T03:29:39;102541.00;;;10.53;33.05
16613;BME280;8419;52.358;9.752;2023-04-03T03:32:25;102536.00;;;10.46;33.16
16613;BME280;8419;52.358;9.752;2023-04-03T03:35:10;102535.00;;;10.47;33.15
16613;BME280;8419;52.358;9.752;2023-04-03T03:37:56;102537.00;;;10.43;33.17
16613;BME280;8419;52.358;9.752;2023-04-03T03:40:41;102539.00;;;10.46;33.17
16613;BME280;8419;52.358;9.752;2023-04-03T03:43:27;102547.00;;;10.41;33.24
16613;BME280;8419;52.358;9.752;2023-04-03T03:46:12;102546.00;;;10.39;33.26
16613;BME280;8419;52.358;9.752;2023-04-03T03:48:58;102541.00;;;10.38;33.28
16613;BME280;8419;52.358;9.752;2023-04-03T03:51:44;102547.00;;;10.35;33.33
16613;BME280;8419;52.358;9.752;2023-04-03T03:54:29;102541.00;;;10.30;33.40
16613;BME280;8419;52.358;9.752;2023-04-03T03:57:15;102540.00;;;10.24;33.50
16613;BME280;8419;52.358;9.752;2023-04-03T04:00:01;102547.00;;;10.23;33.56
16613;BME280;8419;52.358;9.752;2023-04-03T04:02:48;102543.00;;;10.20;33.58
16613;BME280;8419;52.358;9.752;2023-04-03T04:05:33;102552.00;;;10.21;33.58
16613;BME280;8419;52.358;9.752;2023-04-03T04:08:20;102551.00;;;10.20;33.60
16613;BME280;8419;52.358;9.752;2023-04-03T04:11:07;102544.00;;;10.18;33.64
16613;BME280;8419;52.358;9.752;2023-04-03T04:13:53;102548.00;;;10.19;33.66
16613;BME280;8419;52.358;9.752;2023-04-03T04:16:38;102547.00;;;10.19;33.64
16613;BME280;8419;52.358;9.752;2023-04-03T04:19:24;102540.00;;;10.12;33.76
16613;BME280;8419;52.358;9.752;2023-04-03T04:22:10;102550.00;;;10.14;33.78
16613;BME280;8419;52.358;9.752;2023-04-03T04:24:55;102547.00;;;10.09;33.86
16613;BME280;8419;52.358;9.752;2023-04-03T04:27:41;102548.00;;;10.11;33.85
16613;BME280;8419;52.358;9.752;2023-04-03T04:30:27;102547.00;;;10.10;33.89
16613;BME280;8419;52.358;9.752;2023-04-03T04:33:12;102545.00;;;10.12;33.87
16613;BME280;8419;52.358;9.752;2023-04-03T04:35:59;102552.00;;;10.09;33.94
16613;BME280;8419;52.358;9.752;2023-04-03T04:38:44;102555.00;;;10.09;33.95
16613;BME280;8419;52.358;9.752;2023-04-03T04:41:30;102556.00;;;10.13;33.91
16613;BME280;8419;52.358;9.752;2023-04-03T04:44:16;102558.00;;;10.08;33.97
16613;BME280;8419;52.358;9.752;2023-04-03T04:47:01;102562.00;;;10.08;33.98
16613;BME280;8419;52.358;9.752;2023-04-03T04:49:46;102565.00;;;10.06;34.05
16613;BME280;8419;52.358;9.752;2023-04-03T04:52:32;102577.00;;;10.06;34.05
16613;BME280;8419;52.358;9.752;2023-04-03T04:55:18;102568.00;;;10.10;33.99
16613;BME280;8419;52.358;9.752;2023-04-03T04:58:04;102573.00;;;10.13;33.96
16613;BME280;8419;52.358;9.752;2023-04-03T05:00:49;102580.00;;;10.11;34.02
16613;BME280;8419;52.358;9.752;2023-04-03T05:03:35;102580.00;;;10.14;34.00
16613;BME280;8419;52.358;9.752;2023-04-03T05:06:21;102575.00;;;10.17;33.95
16613;BME280;8419;52.358;9.752;2023-04-03T05:09:06;102580.00;;;10.16;33.97
16613;BME280;8419;52.358;9.752;2023-04-03T05:11:51;102584.00;;;10.15;33.99
16613;BME280;8419;52.358;9.752;2023-04-03T05:14:37;102586.00;;;10.13;34.06
16613;BME280;8419;52.358;9.752;2023-04-03T05:17:22;102585.00;;;10.14;34.07
16613;BME280;8419;52.358;9.752;2023-04-03T05:20:10;102583.00;;;10.16;34.09
16613;BME280;8419;52.358;9.752;2023-04-03T05:22:56;102584.00;;;10.20;34.07
16613;BME280;8419;52.358;9.752;2023-04-03T05:25:43;102591.00;;;10.17;34.14
16613;BME280;8419;52.358;9.752;2023-04-03T05:28:30;102585.00;;;10.24;34.08
16613;BME280;8419;52.358;9.752;2023-04-03T05:31:15;102594.00;;;10.24;34.07
16613;BME280;8419;52.358;9.752;2023-04-03T05:34:00;102600.00;;;10.23;34.13
16613;BME280;8419;52.358;9.752;2023-04-03T05:36:46;102604.00;;;10.27;34.11
16613;BME280;8419;52.358;9.752;2023-04-03T05:39:31;102610.00;;;10.32;34.09
16613;BME280;8419;52.358;9.752;2023-04-03T05:42:16;102606.00;;;10.34;34.13
16613;BME280;8419;52.358;9.752;2023-04-03T05:45:02;102607.00;;;10.42;34.08
16613;BME280;8419;52.358;9.752;2023-04-03T05:47:47;102616.00;;;10.48;34.08
16613;BME280;8419;52.358;9.752;2023-04-03T05:50:32;102612.00;;;10.50;34.04
16613;BME280;8419;52.358;9.752;2023-04-03T05:53:20;102617.00;;;10.45;34.18
16613;BME280;8419;52.358;9.752;2023-04-03T05:56:06;102618.00;;;10.53;34.13
16613;BME280;8419;52.358;9.752;2023-04-03T05:58:52;102617.00;;;10.54;34.11
16613;BME280;8419;52.358;9.752;2023-04-03T06:01:37;102634.00;;;10.61;34.07
16613;BME280;8419;52.358;9.752;2023-04-03T06:04:23;102636.00;;;10.59;34.16
16613;BME280;8419;52.358;9.752;2023-04-03T06:07:11;102637.00;;;10.66;34.13
16613;BME280;8419;52.358;9.752;2023-04-03T06:09:57;102635.00;;;10.68;34.16
16613;BME280;8419;52.358;9.752;2023-04-03T06:12:42;102639.00;;;10.73;34.10
16613;BME280;8419;52.358;9.752;2023-04-03T06:15:28;102640.00;;;10.80;34.06
16613;BME280;8419;52.358;9.752;2023-04-03T06:18:13;102655.00;;;10.90;33.97
16613;BME280;8419;52.358;9.752;2023-04-03T06:20:59;102659.00;;;10.95;33.93
16613;BME280;8419;52.358;9.752;2023-04-03T06:23:45;102655.00;;;11.01;33.87
16613;BME280;8419;52.358;9.752;2023-04-03T06:26:30;102659.00;;;11.10;33.85
16613;BME280;8419;52.358;9.752;2023-04-03T06:29:16;102654.00;;;11.07;33.90
16613;BME280;8419;52.358;9.752;2023-04-03T06:32:01;102659.00;;;11.11;33.91
16613;BME280;8419;52.358;9.752;2023-04-03T06:34:47;102656.00;;;11.17;33.84
16613;BME280;8419;52.358;9.752;2023-04-03T06:37:32;102656.00;;;11.20;33.85
16613;BME280;8419;52.358;9.752;2023-04-03T06:40:21;102659.00;;;11.26;33.85
16613;BME280;8419;52.358;9.752;2023-04-03T06:43:07;102658.00;;;11.30;33.83
16613;BME280;8419;52.358;9.752;2023-04-03T06:45:53;102664.00;;;11.37;33.78
16613;BME280;8419;52.358;9.752;2023-04-03T06:48:39;102663.00;;;11.43;33.74
16613;BME280;8419;52.358;9.752;2023-04-03T06:51:25;102667.00;;;11.49;33.71
16613;BME280;8419;52.358;9.752;2023-04-03T06:54:11;102674.00;;;11.55;33.67
16613;BME280;8419;52.358;9.752;2023-04-03T06:56:56;102678.00;;;11.68;33.53
16613;BME280;8419;52.358;9.752;2023-04-03T06:59:42;102677.00;;;11.72;33.45
16613;BME280;8419;52.358;9.752;2023-04-03T07:02:27;102682.00;;;11.78;33.43
16613;BME280;8419;52.358;9.752;2023-04-03T07:05:13;102688.00;;;11.78;33.50
16613;BME280;8419;52.358;9.752;2023-04-03T07:07:58;102687.00;;;11.90;33.38
16613;BME280;8419;52.358;9.752;2023-04-03T07:10:43;102692.00;;;11.96;33.34
16613;BME280;8419;52.358;9.752;2023-04-03T07:13:29;102691.00;;;12.02;33.29
16613;BME280;8419;52.358;9.752;2023-04-03T07:16:14;102698.00;;;12.12;33.17
16613;BME280;8419;52.358;9.752;2023-04-03T07:19:02;102703.00;;;12.21;33.03
16613;BME280;8419;52.358;9.752;2023-04-03T07:21:48;102716.00;;;12.23;33.04
16613;BME280;8419;52.358;9.752;2023-04-03T07:24:34;102703.00;;;12.29;33.01
16613;BME280;8419;52.358;9.752;2023-04-03T07:27:19;102705.00;;;12.38;32.89
16613;BME280;8419;52.358;9.752;2023-04-03T07:30:07;102703.00;;;12.49;32.78
16613;BME280;8419;52.358;9.752;2023-04-03T07:32:55;102708.00;;;12.59;32.65
16613;BME280;8419;52.358;9.752;2023-04-03T07:35:41;102702.00;;;12.63;32.62
16613;BME280;8419;52.358;9.752;2023-04-03T07:38:28;102712.00;;;12.64;32.60
16613;BME280;8419;52.358;9.752;2023-04-03T07:41:15;102708.00;;;12.77;32.43
16613;BME280;8419;52.358;9.752;2023-04-03T07:44:04;102715.00;;;12.84;32.33
16613;BME280;8419;52.358;9.752;2023-04-03T07:46:51;102711.00;;;12.88;32.23
16613;BME280;8419;52.358;9.752;2023-04-03T07:49:36;102720.00;;;12.93;32.20
16613;BME280;8419;52.358;9.752;2023-04-03T07:52:24;102721.00;;;12.98;32.17
16613;BME280;8419;52.358;9.752;2023-04-03T07:55:09;102715.00;;;13.06;32.11
16613;BME280;8419;52.358;9.752;2023-04-03T07:57:55;102717.00;;;13.13;32.00
16613;BME280;8419;52.358;9.752;2023-04-03T08:00:40;102713.00;;;13.23;31.85
16613;BME280;8419;52.358;9.752;2023-04-03T08:03:26;102716.00;;;13.31;31.79
16613;BME280;8419;52.358;9.752;2023-04-03T08:06:11;102713.00;;;13.42;31.66
16613;BME280;8419;52.358;9.752;2023-04-03T08:08:59;102713.00;;;13.48;31.55
16613;BME280;8419;52.358;9.752;2023-04-03T08:11:44;102712.00;;;13.53;31.47
16613;BME280;8419;52.358;9.752;2023-04-03T08:14:32;102718.00;;;13.58;31.40
16613;BME280;8419;52.358;9.752;2023-04-03T08:17:19;102711.00;;;13.68;31.35
16613;BME280;8419;52.358;9.752;2023-04-03T08:20:07;102702.00;;;13.78;31.26
16613;BME280;8419;52.358;9.752;2023-04-03T08:22:53;102715.00;;;13.89;31.11
16613;BME280;8419;52.358;9.752;2023-04-03T08:25:39;102711.00;;;13.93;31.08
16613;BME280;8419;52.358;9.752;2023-04-03T08:28:25;102714.00;;;14.02;31.00
16613;BME280;8419;52.358;9.752;2023-04-03T08:31:14;102713.00;;;14.13;30.88
16613;BME280;8419;52.358;9.752;2023-04-03T08:34:00;102714.00;;;14.13;30.79
16613;BME280;8419;52.358;9.752;2023-04-03T08:36:46;102711.00;;;14.14;30.86
16613;BME280;8419;52.358;9.752;2023-04-03T08:39:31;102717.00;;;14.18;30.83
16613;BME280;8419;52.358;9.752;2023-04-03T08:42:28;102709.00;;;14.23;30.76
16613;BME280;8419;52.358;9.752;2023-04-03T08:45:22;102707.00;;;14.34;30.66
16613;BME280;8419;52.358;9.752;2023-04-03T08:48:15;102711.00;;;14.41;30.58
16613;BME280;8419;52.358;9.752;2023-04-03T08:51:04;102705.00;;;14.40;30.57
16613;BME280;8419;52.358;9.752;2023-04-03T08:53:58;102702.00;;;14.53;30.42
16613;BME280;8419;52.358;9.752;2023-04-03T08:56:47;102698.00;;;14.78;30.12
16613;BME280;8419;52.358;9.752;2023-04-03T08:59:35;102700.00;;;14.98;29.87
16613;BME280;8419;52.358;9.752;2023-04-03T09:02:28;102695.00;;;15.08;29.75
16613;BME280;8419;52.358;9.752;2023-04-03T09:05:18;102696.00;;;15.24;29.60
16613;BME280;8419;52.358;9.752;2023-04-03T09:08:11;102699.00;;;15.47;29.35
16613;BME280;8419;52.358;9.752;2023-04-03T09:11:12;102693.00;;;15.65;29.06
16613;BME280;8419;52.358;9.752;2023-04-03T09:14:04;102698.00;;;15.77;28.85
16613;BME280;8419;52.358;9.752;2023-04-03T09:16:55;102695.00;;;15.88;28.70
16613;BME280;8419;52.358;9.752;2023-04-03T09:19:47;102701.00;;;16.07;28.46
16613;BME280;8419;52.358;9.752;2023-04-03T09:22:38;102692.00;;;16.11;28.31
16613;BME280;8419;52.358;9.752;2023-04-03T09:25:27;102700.00;;;16.14;28.17
16613;BME280;8419;52.358;9.752;2023-04-03T09:28:17;102695.00;;;16.13;28.13
16613;BME280;8419;52.358;9.752;2023-04-03T09:31:16;102690.00;;;16.09;28.11
16613;BME280;8419;52.358;9.752;2023-04-03T09:34:07;102687.00;;;16.15;28.02
16613;BME280;8419;52.358;9.752;2023-04-03T09:36:56;102688.00;;;16.43;27.75
16613;BME280;8419;52.358;9.752;2023-04-03T09:39:51;102690.00;;;16.85;27.29
16613;BME280;8419;52.358;9.752;2023-04-03T09:42:41;102686.00;;;17.08;27.00
16613;BME280;8419;52.358;9.752;2023-04-03T09:45:29;102674.00;;;17.29;26.71
16613;BME280;8419;52.358;9.752;2023-04-03T09:48:18;102681.00;;;17.48;26.50
16613;BME280;8419;52.358;9.752;2023-04-03T09:51:04;102673.00;;;17.44;26.42
16613;BME280;8419;52.358;9.752;2023-04-03T09:53:49;102680.00;;;17.42;26.40
16613;BME280;8419;52.358;9.752;2023-04-03T09:56:35;102683.00;;;17.37;26.31
16613;BME280;8419;52.358;9.752;2023-04-03T09:59:21;102672.00;;;17.45;26.05
16613;BME280;8419;52.358;9.752;2023-04-03T10:02:34;102666.00;;;17.46;25.90
16613;BME280;8419;52.358;9.752;2023-04-03T10:05:31;102674.00;;;17.69;25.57
16613;BME280;8419;52.358;9.752;2023-04-03T10:08:24;102666.00;;;17.65;25.38
16613;BME280;8419;52.358;9.752;2023-04-03T10:11:15;102653.00;;;17.48;25.30
16613;BME280;8419;52.358;9.752;2023-04-03T10:14:03;102662.00;;;17.37;25.17
16613;BME280;8419;52.358;9.752;2023-04-03T10:16:57;102650.00;;;17.42;25.08
16613;BME280;8419;52.358;9.752;2023-04-03T10:19:59;102648.00;;;17.62;24.72
16613;BME280;8419;52.358;9.752;2023-04-03T10:23:00;102649.00;;;17.67;24.62
16613;BME280;8419;52.358;9.752;2023-04-03T10:25:58;102637.00;;;17.82;24.36
16613;BME280;8419;52.358;9.752;2023-04-03T10:28:57;102654.00;;;17.81;24.32
16613;BME280;8419;52.358;9.752;2023-04-03T10:31:51;102648.00;;;17.83;24.20
16613;BME280;8419;52.358;9.752;2023-04-03T10:34:43;102637.00;;;17.98;24.01
16613;BME280;8419;52.358;9.752;2023-04-03T10:37:34;102639.00;;;18.26;23.65
16613;BME280;8419;52.358;9.752;2023-04-03T10:40:30;102634.00;;;18.33;23.52
16613;BME280;8419;52.358;9.752;2023-04-03T10:43:27;102637.00;;;18.29;23.44
16613;BME280;8419;52.358;9.752;2023-04-03T10:46:19;102635.00;;;18.25;23.38
16613;BME280;8419;52.358;9.752;2023-04-03T10:49:20;102630.00;;;18.44;23.27
16613;BME280;8419;52.358;9.752;2023-04-03T10:52:14;102630.00;;;18.59;23.17
16613;BME280;8419;52.358;9.752;2023-04-03T10:55:13;102634.00;;;18.71;23.02
16613;BME280;8419;52.358;9.752;2023-04-03T10:58:05;102621.00;;;18.84;22.80
16613;BME280;8419;52.358;9.752;2023-04-03T11:00:53;102612.00;;;19.09;22.62
16613;BME280;8419;52.358;9.752;2023-04-03T11:03:42;102600.00;;;19.17;22.40
16613;BME280;8419;52.358;9.752;2023-04-03T11:06:36;102617.00;;;19.32;22.25
16613;BME280;8419;52.358;9.752;2023-04-03T11:09:25;102613.00;;;19.54;22.07
16613;BME280;8419;52.358;9.752;2023-04-03T11:12:14;102606.00;;;19.78;21.93
16613;BME280;8419;52.358;9.752;2023-04-03T11:15:04;102601.00;;;20.06;21.71
16613;BME280;8419;52.358;9.752;2023-04-03T11:17:53;102609.00;;;20.18;21.57
16613;BME280;8419;52.358;9.752;2023-04-03T11:20:42;102594.00;;;20.33;21.48
16613;BME280;8419;52.358;9.752;2023-04-03T11:23:33;102590.00;;;20.64;21.14
16613;BME280;8419;52.358;9.752;2023-04-03T11:26:24;102587.00;;;20.81;20.88
16613;BME280;8419;52.358;9.752;2023-04-03T11:29:15;102588.00;;;20.86;20.89
16613;BME280;8419;52.358;9.752;2023-04-03T11:32:11;102574.00;;;20.97;20.80
16613;BME280;8419;52.358;9.752;2023-04-03T11:35:01;102579.00;;;20.93;20.70
16613;BME280;8419;52.358;9.752;2023-04-03T11:37:51;102576.00;;;20.76;20.83
16613;BME280;8419;52.358;9.752;2023-04-03T11:40:38;102583.00;;;20.68;20.86
16613;BME280;8419;52.358;9.752;2023-04-03T11:43:27;102576.00;;;20.67;20.83
16613;BME280;8419;52.358;9.752;2023-04-03T11:46:14;102590.00;;;20.54;20.88
16613;BME280;8419;52.358;9.752;2023-04-03T11:49:03;102584.00;;;20.35;20.95
16613;BME280;8419;52.358;9.752;2023-04-03T11:51:48;102576.00;;;20.16;21.07
16613;BME280;8419;52.358;9.752;2023-04-03T11:54:48;102584.00;;;19.96;21.22
16613;BME280;8419;52.358;9.752;2023-04-03T11:58:03;102579.00;;;19.97;21.17
16613;BME280;8419;52.358;9.752;2023-04-03T12:04:10;102565.00;;;20.38;20.82
16613;BME280;8419;52.358;9.752;2023-04-03T12:07:18;102569.00;;;21.10;20.17
16613;BME280;8419;52.358;9.752;2023-04-03T12:10:18;102573.00;;;21.75;19.80
16613;BME280;8419;52.358;9.752;2023-04-03T12:13:16;102564.00;;;22.08;19.56
16613;BME280;8419;52.358;9.752;2023-04-03T12:16:03;102561.00;;;22.05;19.59
16613;BME280;8419;52.358;9.752;2023-04-03T12:18:59;102562.00;;;21.67;19.79
16613;BME280;8419;52.358;9.752;2023-04-03T12:22:25;102567.00;;;21.47;19.89
16613;BME280;8419;52.358;9.752;2023-04-03T12:25:43;102558.00;;;21.29;20.05
16613;BME280;8419;52.358;9.752;2023-04-03T12:28:38;102560.00;;;21.18;20.09
16613;BME280;8419;52.358;9.752;2023-04-03T12:31:31;102561.00;;;21.30;19.85
16613;BME280;8419;52.358;9.752;2023-04-03T12:34:37;102552.00;;;21.19;19.82
16613;BME280;8419;52.358;9.752;2023-04-03T12:37:40;102554.00;;;21.13;19.80
16613;BME280;8419;52.358;9.752;2023-04-03T12:40:34;102546.00;;;20.81;19.94
16613;BME280;8419;52.358;9.752;2023-04-03T12:43:42;102551.00;;;20.46;20.19
16613;BME280;8419;52.358;9.752;2023-04-03T12:46:37;102545.00;;;20.08;20.41
16613;BME280;8419;52.358;9.752;2023-04-03T12:49:36;102540.00;;;19.64;20.70
16613;BME280;8419;52.358;9.752;2023-04-03T12:52:32;102541.00;;;19.37;20.96
16613;BME280;8419;52.358;9.752;2023-04-03T12:55:21;102547.00;;;19.36;20.93
16613;BME280;8419;52.358;9.752;2023-04-03T12:58:25;102543.00;;;19.25;20.88
16613;BME280;8419;52.358;9.752;2023-04-03T13:01:13;102537.00;;;19.84;20.52
16613;BME280;8419;52.358;9.752;2023-04-03T13:04:00;102521.00;;;21.38;19.35
16613;BME280;8419;52.358;9.752;2023-04-03T13:06:46;102522.00;;;22.85;18.32
16613;BME280;8419;52.358;9.752;2023-04-03T13:09:32;102517.00;;;23.86;17.63
16613;BME280;8419;52.358;9.752;2023-04-03T13:12:17;102517.00;;;25.17;16.90
16613;BME280;8419;52.358;9.752;2023-04-03T13:15:16;102510.00;;;25.77;16.49
16613;BME280;8419;52.358;9.752;2023-04-03T13:18:03;102512.00;;;25.68;16.57
16613;BME280;8419;52.358;9.752;2023-04-03T13:20:49;102510.00;;;25.67;16.60
16613;BME280;8419;52.358;9.752;2023-04-03T13:23:38;102502.00;;;26.20;16.25
16613;BME280;8419;52.358;9.752;2023-04-03T13:26:28;102509.00;;;27.43;15.49
16613;BME280;8419;52.358;9.752;2023-04-03T13:29:34;102502.00;;;28.41;14.81
16613;BME280;8419;52.358;9.752;2023-04-03T13:32:22;102494.00;;;29.23;14.44
16613;BME280;8419;52.358;9.752;2023-04-03T13:35:30;102491.00;;;29.57;14.15
16613;BME280;8419;52.358;9.752;2023-04-03T13:38:27;102485.00;;;30.07;13.99
16613;BME280;8419;52.358;9.752;2023-04-03T13:41:29;102481.00;;;30.66;13.66
16613;BME280;8419;52.358;9.752;2023-04-03T13:44:25;102476.00;;;29.19;14.25
16613;BME280;8419;52.358;9.752;2023-04-03T13:47:18;102483.00;;;27.37;15.33
16613;BME280;8419;52.358;9.752;2023-04-03T13:50:16;102480.00;;;25.99;16.13
16613;BME280;8419;52.358;9.752;2023-04-03T13:53:08;102475.00;;;25.62;16.36
16613;BME280;8419;52.358;9.752;2023-04-03T13:55:59;102474.00;;;24.91;16.65
16613;BME280;8419;52.358;9.752;2023-04-03T13:58:55;102468.00;;;24.16;17.02
16613;BME280;8419;52.358;9.752;2023-04-03T14:01:44;102464.00;;;23.65;17.29
16613;BME280;8419;52.358;9.752;2023-04-03T14:04:32;102465.00;;;23.11;17.57
16613;BME280;8419;52.358;9.752;2023-04-03T14:07:19;102470.00;;;22.73;17.72
16613;BME280;8419;52.358;9.752;2023-04-03T14:10:09;102456.00;;;22.71;17.67
16613;BME280;8419;52.358;9.752;2023-04-03T14:12:56;102460.00;;;22.73;17.51
16613;BME280;8419;52.358;9.752;2023-04-03T14:15:42;102458.00;;;22.22;17.71
16613;BME280;8419;52.358;9.752;2023-04-03T14:18:29;102453.00;;;22.06;17.82
16613;BME280;8419;52.358;9.752;2023-04-03T14:21:17;102463.00;;;23.42;16.90
16613;BME280;8419;52.358;9.752;2023-04-03T14:24:03;102447.00;;;25.65;15.40
16613;BME280;8419;52.358;9.752;2023-04-03T14:26:50;102451.00;;;27.42;14.31
16613;BME280;8419;52.358;9.752;2023-04-03T14:29:37;102444.00;;;28.26;13.87
16613;BME280;8419;52.358;9.752;2023-04-03T14:32:24;102449.00;;;28.29;13.88
16613;BME280;8419;52.358;9.752;2023-04-03T14:35:11;102440.00;;;28.04;14.08
16613;BME280;8419;52.358;9.752;2023-04-03T14:37:56;102435.00;;;28.72;13.73
16613;BME280;8419;52.358;9.752;2023-04-03T14:40:42;102436.00;;;29.44;13.42
16613;BME280;8419;52.358;9.752;2023-04-03T14:43:28;102436.00;;;30.11;13.10
16613;BME280;8419;52.358;9.752;2023-04-03T14:46:17;102426.00;;;30.64;12.84
16613;BME280;8419;52.358;9.752;2023-04-03T14:49:03;102427.00;;;30.13;13.00
16613;BME280;8419;52.358;9.752;2023-04-03T14:51:52;102421.00;;;29.12;13.55
16613;BME280;8419;52.358;9.752;2023-04-03T14:54:38;102426.00;;;28.52;13.82
16613;BME280;8419;52.358;9.752;2023-04-03T14:57:25;102426.00;;;27.38;14.38